»·PEaware :: DCM206 KASE-KASE

DCM206 :: KASE-KASE

FLIGHT INFORMATION

Flight Status: Arrived
Operator: DotCom
More flights by this operator :: More flights under this callsign
Pilot: Nick L. (7253)
Aircraft: AIRBUS A319
(A319)
More flights by this aircraft type
Origin: KASE Aspen-Pitkin Co/Sardy
United States
Destination: KASE Aspen-Pitkin Co/Sardy
United States
More flights between these airports :: More routes between these airports
Route: LINDZ9 RLG DBL
File this flight plan on PilotEdge
Remarks:
Altitude:
(Current/Filed)
16,000ft
Speed:
(Current/Filed)
290kts
Departed: 15-Jul-19 06:55 AM
Arrived: 15-Jul-19 07:15 AM
Distance/Time
Traveled:
0nm/0:20
Distance/Time
To Go:
Arrived

Flight Plot

Page will automatically refresh every two minutes.

Flight plan parsing failed; only flown route is shown


Map Options




Map Legend


Flown Route
Filed Route
Departure Airport
Arrival Airport
Navaid (VOR, NDB)
Fix

Horizontal Profiles

Position Reports

Time Latitude Longitude Heading Altitude Ground
Speed
15-Jul-19 06:39 39.220026 -106.865454 100 7776ft 0kts
15-Jul-19 06:39 39.220026 -106.865454 100 7776ft 0kts
15-Jul-19 06:40 39.220026 -106.865454 100 7776ft 0kts
15-Jul-19 06:41 39.220026 -106.865454 100 7776ft 0kts
15-Jul-19 06:42 39.220026 -106.865454 100 7776ft 0kts
15-Jul-19 06:43 39.220026 -106.865454 100 7776ft 0kts
15-Jul-19 06:44 39.220026 -106.865454 100 7776ft 0kts
15-Jul-19 06:45 39.220026 -106.865454 100 7776ft 0kts
15-Jul-19 06:46 39.220026 -106.865454 100 7776ft 0kts
15-Jul-19 06:47 39.220026 -106.865454 100 7776ft 0kts
15-Jul-19 06:48 39.220026 -106.865454 100 7776ft 0kts
15-Jul-19 06:49 39.220026 -106.865454 100 7776ft 0kts
15-Jul-19 06:50 39.220026 -106.865434 127 7776ft 1kts
15-Jul-19 06:51 39.219135 -106.865714 158 7784ft 8kts
15-Jul-19 06:52 39.214121 -106.863339 158 7822ft 23kts
15-Jul-19 06:53 39.211891 -106.863476 337 7827ft 7kts
15-Jul-19 06:54 39.241489 -106.877429 341 8493ft 174kts
15-Jul-19 06:55 39.278038 -106.912725 280 10744ft 212kts
15-Jul-19 06:56 39.292024 -107.000861 282 12869ft 290kts
15-Jul-19 06:57 39.342372 -107.092428 310 15390ft 344kts
15-Jul-19 06:58 39.420179 -107.132550 9 16005ft 359kts
15-Jul-19 06:59 39.509388 -107.074753 27 16006ft 398kts
15-Jul-19 07:00 39.598882 -107.012286 26 16002ft 398kts
15-Jul-19 07:01 39.703659 -106.968875 10 16002ft 395kts
15-Jul-19 07:02 39.802347 -106.913227 51 15999ft 400kts
15-Jul-19 07:03 39.806142 -106.777289 125 15998ft 394kts
15-Jul-19 07:04 39.719793 -106.734341 187 15809ft 333kts
15-Jul-19 07:05 39.631678 -106.749442 188 14300ft 320kts
15-Jul-19 07:06 39.553657 -106.786364 218 14019ft 302kts
15-Jul-19 07:07 39.491227 -106.846632 216 14011ft 258kts
15-Jul-19 07:08 39.440199 -106.896591 231 14012ft 214kts
15-Jul-19 07:09 39.410694 -106.957916 200 13434ft 198kts
15-Jul-19 07:10 39.365512 -106.937503 160 12305ft 152kts
15-Jul-19 07:11 39.325532 -106.917742 161 11840ft 153kts
15-Jul-19 07:12 39.285002 -106.898299 161 10064ft 162kts
15-Jul-19 07:13 39.242515 -106.878054 162 8223ft 166kts
15-Jul-19 07:14 39.214496 -106.864653 133 7823ft 0kts
15-Jul-19 07:15 39.217550 -106.864966 340 7797ft 29kts
15-Jul-19 07:16 39.219771 -106.865638 107 7778ft 5kts
15-Jul-19 07:17 39.219726 -106.865307 100 7779ft 0kts
15-Jul-19 07:18 39.219726 -106.865307 100 7779ft 0kts
15-Jul-19 07:19 39.219726 -106.865307 100 7779ft 0kts
15-Jul-19 07:20 39.219726 -106.865307 100 7779ft 0kts
15-Jul-19 07:21 39.219726 -106.865307 100 7779ft 0kts
15-Jul-19 07:22 39.219726 -106.865307 100 7779ft 0kts
15-Jul-19 07:23 39.219726 -106.865307 100 7779ft 0kts
15-Jul-19 07:24 39.219726 -106.865307 100 7779ft 0kts
15-Jul-19 07:25 39.219726 -106.865307 100 7779ft 0kts
15-Jul-19 07:26 39.219726 -106.865307 100 7779ft 0kts
15-Jul-19 07:27 39.219726 -106.865307 100 7779ft 0kts
15-Jul-19 07:28 39.219726 -106.865307 100 7779ft 0kts
15-Jul-19 07:29 39.219726 -106.865307 100 7779ft 0kts

Navigation Log

Ident Type
Flight plan parsing failed, navigation log unavailable